Thursday, January 17, 2019, 6:02 AM EST
Back to Local

KEWR, Newark International Airport

Location: Elizabeth, NJ, United States Lat: 40.683
Local Time: 6:02 AM EST (11:02 GMT) Lon: -74.167
Time Zone: US/Eastern Elev: 16 ft

Show me the last for .
Show Decoded

2019-01-17 04:51 METAR KEWR 170951Z 33008KT 10SM BKN250 M03/M16 A3033 RMK AO2 SLP271 T10331161 =
2019-01-17 03:51 METAR KEWR 170851Z 33010KT 10SM BKN250 M03/M16 A3032 RMK AO2 SLP266 T10331161
                 51019 =
2019-01-17 02:51 METAR KEWR 170751Z 34010KT 10SM BKN250 M02/M14 A3031 RMK AO2 SLP264 T10221144 =
2019-01-17 01:51 METAR KEWR 170651Z 32015G25KT 10SM SCT210 BKN250 M02/M12 A3029 RMK AO2 SLP257
                 T10171122 =
2019-01-17 00:51 METAR KEWR 170551Z 34011KT 10SM BKN220 M01/M10 A3026 RMK AO2 SLP247 T10061100
                 10039 21006 53026 =
2019-01-16 23:51 METAR KEWR 170451Z 31014KT 10SM FEW050 BKN230 01/M11 A3024 RMK AO2 SLP238
                 T00111106 400391050 =
2019-01-16 22:51 METAR KEWR 170351Z 31012KT 10SM FEW047 FEW055 BKN230 02/M08 A3022 RMK AO2 SLP231
                 T00221078 =
2019-01-16 21:51 METAR KEWR 170251Z 31007KT 10SM BKN045 03/M06 A3019 RMK AO2 SLP222 T00281061
                 53023 =
2019-01-16 20:51 METAR KEWR 170151Z 26010KT 10SM BKN055 03/M06 A3015 RMK AO2 SLP209 T00281061 =
2019-01-16 19:51 METAR KEWR 170051Z 25010KT 10SM SCT055 03/M06 A3013 RMK AO2 SLP203 T00281061 =
2019-01-16 18:51 METAR KEWR 162351Z 25010KT 10SM BKN055 03/M07 A3012 RMK AO2 SLP198 T00331067
                 10039 20028 53020 =
2019-01-16 17:51 METAR KEWR 162251Z 26008KT 10SM BKN055 BKN250 03/M06 A3010 RMK AO2 SLP192
                 T00331061 =
2019-01-16 16:51 METAR KEWR 162151Z 26010G18KT 10SM BKN050 BKN250 04/M06 A3008 RMK AO2 SLP185
                 T00391061 =
2019-01-16 15:51 METAR KEWR 162051Z 28011KT 10SM BKN045 04/M06 A3006 RMK AO2 SLP178 T00391056
                 53003 =
2019-01-16 14:51 METAR KEWR 161951Z 25009KT 10SM BKN040 03/M05 A3005 RMK AO2 SLP174 T00331050 =
2019-01-16 13:51 METAR KEWR 161851Z 27012KT 10SM OVC039 03/M04 A3005 RMK AO2 SLP174 T00281044 =
2019-01-16 12:51 METAR KEWR 161751Z 27013KT 10SM FEW032 BKN035 OVC045 02/M05 A3005 RMK AO2 SLP175
                 T00221050 10028 21028 58014 =
2019-01-16 11:51 METAR KEWR 161651Z 26011KT 10SM FEW025 BKN035 OVC040 02/M05 A3007 RMK AO2 SLP182
                 T00221050 =
2019-01-16 10:51 METAR KEWR 161551Z 26013KT 210V290 10SM FEW025 OVC034 01/M06 A3010 RMK AO2
                 SLP191 T00111056 =
2019-01-16 10:30 METAR KEWR 161530Z 26009G15KT 10SM FEW025 OVC032 01/M05 A3010 RMK AO2 T00111050
                 =
2019-01-16 09:51 METAR KEWR 161451Z 23009KT 9SM OVC028 00/M05 A3009 RMK AO2 SLP188 CIG 025V032
                 T00001050 53010 =
2019-01-16 08:51 METAR KEWR 161351Z 22009KT 9SM OVC027 M01/M06 A3007 RMK AO2 SLP181 T10111056 =
2019-01-16 07:51 METAR KEWR 161251Z 22008KT 9SM OVC026 M02/M06 A3006 RMK AO2 SLP178 T10221061 =
2019-01-16 07:07 METAR KEWR 161207Z 23009KT 10SM OVC029 M03/M07 A3006 RMK AO2 T10281067 =
2019-01-16 06:51 METAR KEWR 161151Z 22008KT 10SM BKN030 BKN250 M03/M07 A3006 RMK AO2 SLP178
                 T10281067 11028 21050 53001 =

Support USWX by starting your Amazon purchase here.